Time;durP1;ratioP1;P1;durP2;ratioP2;P2;SDS_P1;SDS_P2;PMS_P1;PMS_P2;Temp;Humidity;BMP_temperature;BMP_pressure;BME280_temperature;BME280_humidity;BME280_pressure;Samples;Min_cycle;Max_cycle;Signal;HPM_P1;HPM_P2
2022/10/13 00:00:27;;;;;;;;;;;;;;;-144.99;89.17;52366.56;5082713;22;19933;-78
2022/10/13 00:02:54;;;;;;;;;;;;;;;-144.99;90.07;52342.09;5046892;28;20399;-78
2022/10/13 00:05:20;;;;;;;;;;;;;;;-144.99;90.67;52338.03;5045496;28;19936;-77
2022/10/13 00:07:47;;;;;;;;;;;;;;;-144.99;91.44;52350.25;5042932;28;20388;-79
2022/10/13 00:10:13;;;;;;;;;;;;;;;-144.99;91.11;52370.63;5043921;28;20269;-78
2022/10/13 00:12:41;;;;;;;;;;;;;;;-144.99;91.07;52362.50;5045568;28;19931;-79
2022/10/13 00:15:07;;;;;;;;;;;;;;;-144.99;91.07;52327.84;5049443;28;19931;-78
2022/10/13 00:17:35;;;;;;;;;;;;;;;-144.99;91.14;52333.94;5043219;28;19960;-78
2022/10/13 00:20:01;;;;;;;;;;;;;;;-144.99;91.04;52370.63;5058014;28;19925;-80
2022/10/13 00:22:28;;;;;;;;;;;;;;;-144.99;90.98;52362.50;5062327;28;19967;-79
2022/10/13 00:24:56;;;;;;;;;;;;;;;-144.99;91.02;52360.44;5056609;28;19935;-80
2022/10/13 00:27:22;;;;;;;;;;;;;;;-144.99;91.23;52354.34;5054805;28;19972;-79
2022/10/13 00:29:50;;;;;;;;;;;;;;;-144.99;91.26;52350.25;5057373;28;20031;-78
2022/10/13 00:32:17;;;;;;;;;;;;;;;-144.99;91.30;52370.63;5062973;28;19929;-82
2022/10/13 00:34:43;;;;;;;;;;;;;;;-144.99;91.39;52346.19;5057541;28;19935;-80
2022/10/13 00:37:09;;;;;;;;;;;;;;;-144.99;91.82;52338.03;5060633;28;20327;-82
2022/10/13 00:39:36;;;;;;;;;;;;;;;-144.99;91.80;52391.03;5050560;28;19993;-80
2022/10/13 00:42:02;;;;;;;;;;;;;;;-144.99;91.84;52346.19;5052850;28;19935;-82
2022/10/13 00:44:49;;;;;;;;;;;;;;;-144.99;91.92;52382.88;5055264;28;19967;-82
2022/10/13 00:47:17;;;;;;;;;;;;;;;-144.99;91.97;52354.34;5058722;28;20000;-82
2022/10/13 00:49:43;;;;;;;;;;;;;;;-144.99;92.17;52325.81;5056648;28;19948;-81
2022/10/13 00:52:10;;;;;;;;;;;;;;;-144.99;92.12;52303.38;5057715;28;19935;-81
2022/10/13 00:54:36;;;;;;;;;;;;;;;-144.99;92.08;52346.19;5062161;28;20054;-85
2022/10/13 00:57:03;;;;;;;;;;;;;;;-144.99;92.19;52360.44;5061152;28;19925;-82
2022/10/13 00:59:30;;;;;;;;;;;;;;;-144.99;92.35;52358.41;5063689;28;19963;-83
2022/10/13 01:01:58;;;;;;;;;;;;;;;-144.99;92.39;52366.56;5065016;28;19929;-82
2022/10/13 01:04:27;;;;;;;;;;;;;;;-144.99;92.58;52311.53;5070497;28;19913;-83
2022/10/13 01:06:55;;;;;;;;;;;;;;;-144.99;92.79;52386.94;5074158;28;19941;-82
2022/10/13 01:09:21;;;;;;;;;;;;;;;-144.99;93.03;52370.63;5072746;28;19939;-83
2022/10/13 01:11:58;;;;;;;;;;;;;;;-144.99;93.24;52370.63;5062431;28;19924;-82
2022/10/13 01:14:29;;;;;;;;;;;;;;;-144.99;93.62;52309.50;5065044;28;19912;-83
2022/10/13 01:17:02;;;;;;;;;;;;;;;-144.99;93.50;52364.53;5067162;28;20108;-82
2022/10/13 01:19:43;;;;;;;;;;;;;;;-144.99;93.55;52338.03;5062944;28;19947;-83
2022/10/13 01:22:20;;;;;;;;;;;;;;;-144.99;93.73;52391.03;5067896;28;20362;-79
2022/10/13 01:24:49;;;;;;;;;;;;;;;-144.99;94.08;52362.50;5055266;28;20375;-79
2022/10/13 01:27:33;;;;;;;;;;;;;;;-144.99;94.38;52333.94;5042388;28;20242;-79
2022/10/13 01:30:08;;;;;;;;;;;;;;;-144.99;94.46;52362.50;5042571;28;19935;-79
2022/10/13 01:32:41;;;;;;;;;;;;;;;-144.99;94.74;52380.84;5046179;28;20015;-78
2022/10/13 01:35:09;;;;;;;;;;;;;;;-144.99;94.99;52401.22;5051070;28;19925;-80
2022/10/13 01:37:42;;;;;;;;;;;;;;;-144.99;95.21;52360.44;5039486;28;19925;-78
2022/10/13 01:40:12;;;;;;;;;;;;;;;-144.99;95.25;52362.50;5047536;28;19925;-77
2022/10/13 01:42:42;;;;;;;;;;;;;;;-144.99;95.57;52366.56;5039329;28;19929;-78
2022/10/13 01:45:12;;;;;;;;;;;;;;;-144.99;95.77;52366.56;5046952;28;20016;-78
2022/10/13 01:47:38;;;;;;;;;;;;;;;-144.99;95.69;52346.19;5042133;28;19932;-77
2022/10/13 01:50:06;;;;;;;;;;;;;;;-144.99;95.61;52342.09;5054720;28;20366;-81
2022/10/13 01:52:35;;;;;;;;;;;;;;;-144.99;96.04;52356.38;5049092;28;20015;-80
2022/10/13 01:55:05;;;;;;;;;;;;;;;-144.99;96.49;52395.09;5071074;28;19923;-82
2022/10/13 01:57:33;;;;;;;;;;;;;;;-144.99;96.80;52366.56;5067665;28;19932;-78
2022/10/13 02:00:01;;;;;;;;;;;;;;;-144.99;96.99;52391.03;5060059;28;19925;-80
2022/10/13 02:02:32;;;;;;;;;;;;;;;-144.99;97.43;52374.72;5043615;28;20019;-79
2022/10/13 02:05:02;;;;;;;;;;;;;;;-144.99;97.43;52350.25;5044086;28;19925;-76
2022/10/13 02:07:33;;;;;;;;;;;;;;;-144.99;97.64;52386.94;5051476;28;19936;-77
2022/10/13 02:10:09;;;;;;;;;;;;;;;-144.99;97.92;52350.25;5050185;28;19935;-79
2022/10/13 02:12:39;;;;;;;;;;;;;;;-144.99;98.26;52358.41;5048730;28;19983;-78
2022/10/13 02:15:08;;;;;;;;;;;;;;;-144.99;98.46;52342.09;5042005;28;19936;-79
2022/10/13 02:17:36;;;;;;;;;;;;;;;-144.99;98.79;52350.25;5051504;28;19925;-77
2022/10/13 02:20:05;;;;;;;;;;;;;;;-144.99;98.63;52317.66;5043062;28;19979;-76
2022/10/13 02:22:36;;;;;;;;;;;;;;;-144.99;98.79;52342.09;5042963;28;19933;-79
2022/10/13 02:25:03;;;;;;;;;;;;;;;-144.99;98.48;52321.72;5045895;28;19931;-76
2022/10/13 02:27:29;;;;;;;;;;;;;;;-144.99;98.49;52350.25;5042388;28;19999;-79
2022/10/13 02:29:56;;;;;;;;;;;;;;;-144.99;98.49;52358.41;5043641;28;19925;-78
2022/10/13 02:32:23;;;;;;;;;;;;;;;-144.99;98.59;52331.91;5044382;28;19924;-78
2022/10/13 02:34:51;;;;;;;;;;;;;;;-144.99;98.52;52346.19;5047064;28;20376;-79
2022/10/13 02:37:17;;;;;;;;;;;;;;;-144.99;98.17;52346.19;5046260;28;19929;-78
2022/10/13 02:39:43;;;;;;;;;;;;;;;-144.99;98.18;52342.09;5046275;28;19925;-78
2022/10/13 02:42:10;;;;;;;;;;;;;;;-144.99;98.47;52346.19;5049905;28;20388;-79
2022/10/13 02:44:36;;;;;;;;;;;;;;;-144.99;98.02;52362.50;5040084;28;20000;-79
2022/10/13 02:47:03;;;;;;;;;;;;;;;-144.99;98.28;52333.94;5041363;28;20011;-81
2022/10/13 02:49:29;;;;;;;;;;;;;;;-144.99;98.27;52340.06;5033362;28;20012;-79
2022/10/13 02:51:57;;;;;;;;;;;;;;;-144.99;98.64;52342.09;5037901;28;19929;-80
2022/10/13 02:54:23;;;;;;;;;;;;;;;-144.99;98.18;52372.69;5046925;28;19937;-79
2022/10/13 02:56:50;;;;;;;;;;;;;;;-144.99;97.92;52338.03;5049924;28;19933;-80
2022/10/13 02:59:16;;;;;;;;;;;;;;;-144.99;97.99;52374.72;5040730;28;20363;-80
2022/10/13 03:01:43;;;;;;;;;;;;;;;-144.99;98.51;52327.84;5044345;28;19933;-79
2022/10/13 03:04:10;;;;;;;;;;;;;;;-144.99;98.78;52350.25;5042493;28;20008;-78
2022/10/13 03:06:36;;;;;;;;;;;;;;;-144.99;99.14;52333.94;5041605;28;20324;-79
2022/10/13 03:09:04;;;;;;;;;;;;;;;-144.99;99.28;52333.94;5046267;28;19925;-78
2022/10/13 03:11:31;;;;;;;;;;;;;;;-144.99;99.27;52301.34;5048760;28;19932;-77
2022/10/13 03:13:57;;;;;;;;;;;;;;;-144.99;99.34;52358.41;5043314;28;20010;-79
2022/10/13 03:16:23;;;;;;;;;;;;;;;-144.99;99.46;52325.81;5049320;28;19924;-79
2022/10/13 03:18:50;;;;;;;;;;;;;;;-144.99;99.35;52340.06;5046537;28;19925;-79
2022/10/13 03:21:16;;;;;;;;;;;;;;;-144.99;99.66;52354.34;5040992;28;19951;-78
2022/10/13 03:23:42;;;;;;;;;;;;;;;-144.99;99.93;52358.41;5044729;28;19925;-79
2022/10/13 03:26:10;;;;;;;;;;;;;;;-144.99;100.00;52354.34;5048549;28;20016;-78
2022/10/13 03:28:37;;;;;;;;;;;;;;;-144.99;100.00;52346.19;5049471;28;19933;-79
2022/10/13 03:31:04;;;;;;;;;;;;;;;-144.99;100.00;52309.50;5054640;28;20003;-79
2022/10/13 03:33:30;;;;;;;;;;;;;;;-144.99;100.00;52342.09;5047767;28;19935;-79
2022/10/13 03:35:58;;;;;;;;;;;;;;;-144.99;100.00;52358.41;5051623;28;19924;-80
2022/10/13 03:38:24;;;;;;;;;;;;;;;-144.99;100.00;52354.34;5054236;28;20015;-80
2022/10/13 03:40:51;;;;;;;;;;;;;;;-144.99;100.00;52399.19;5051300;28;19933;-79
2022/10/13 03:43:18;;;;;;;;;;;;;;;-144.99;100.00;52342.09;5060437;28;20323;-81
2022/10/13 03:45:45;;;;;;;;;;;;;;;-144.99;100.00;52342.09;5047531;28;20163;-80
2022/10/13 03:48:11;;;;;;;;;;;;;;;-144.99;100.00;52333.94;5051465;28;19924;-81
2022/10/13 03:50:37;;;;;;;;;;;;;;;-144.99;100.00;52313.56;5044489;28;19932;-80
2022/10/13 03:53:04;;;;;;;;;;;;;;;-144.99;100.00;52313.56;5052505;28;19935;-80
2022/10/13 03:55:30;;;;;;;;;;;;;;;-144.99;100.00;52325.81;5053331;28;19925;-81
2022/10/13 03:57:56;;;;;;;;;;;;;;;-144.99;100.00;52382.88;5053868;28;19925;-79
2022/10/13 04:00:24;;;;;;;;;;;;;;;-144.99;100.00;52378.78;5051267;28;19928;-82
2022/10/13 04:02:50;;;;;;;;;;;;;;;-144.99;100.00;52346.19;5052210;28;19924;-81
2022/10/13 04:05:17;;;;;;;;;;;;;;;-144.99;100.00;52325.81;5046589;28;19925;-80
2022/10/13 04:07:43;;;;;;;;;;;;;;;-144.99;100.00;52323.75;5050070;28;19951;-79
2022/10/13 04:10:09;;;;;;;;;;;;;;;-144.99;100.00;52350.25;5049151;28;19933;-79
2022/10/13 04:12:36;;;;;;;;;;;;;;;-144.99;100.00;52333.94;5047156;28;19924;-80
2022/10/13 04:15:03;;;;;;;;;;;;;;;-144.99;100.00;52354.34;5047594;28;19925;-80
2022/10/13 04:17:31;;;;;;;;;;;;;;;-144.99;100.00;52313.56;5048887;28;19932;-79
2022/10/13 04:19:57;;;;;;;;;;;;;;;-144.99;100.00;52350.25;5051658;28;19931;-80
2022/10/13 04:22:23;;;;;;;;;;;;;;;-144.99;100.00;52338.03;5048215;28;19924;-79
2022/10/13 04:24:50;;;;;;;;;;;;;;;-144.99;100.00;52333.94;5043837;28;19927;-80
2022/10/13 04:27:18;;;;;;;;;;;;;;;-144.99;100.00;52348.22;5048764;28;19931;-79
2022/10/13 04:29:44;;;;;;;;;;;;;;;-144.99;100.00;52354.34;5055022;28;19925;-81
2022/10/13 04:32:11;;;;;;;;;;;;;;;-144.99;100.00;52370.63;5051461;28;19925;-81
2022/10/13 04:34:39;;;;;;;;;;;;;;;-144.99;100.00;52311.53;5060663;28;19933;-81
2022/10/13 04:37:05;;;;;;;;;;;;;;;-144.99;100.00;52378.78;5056834;28;19925;-80
2022/10/13 04:39:32;;;;;;;;;;;;;;;-144.99;100.00;52338.03;5053287;28;20031;-79
2022/10/13 04:41:58;;;;;;;;;;;;;;;-144.99;100.00;52333.94;5069819;28;19921;-81
2022/10/13 04:44:25;;;;;;;;;;;;;;;-144.99;100.00;52338.03;5062579;28;19960;-80
2022/10/13 04:46:51;;;;;;;;;;;;;;;-144.99;100.00;52348.22;5046204;28;20027;-78
2022/10/13 04:49:17;;;;;;;;;;;;;;;-144.99;100.00;52317.66;5047837;28;20017;-79
2022/10/13 04:51:45;;;;;;;;;;;;;;;-144.99;100.00;52338.03;5044497;28;20304;-78
2022/10/13 04:54:11;;;;;;;;;;;;;;;-144.99;100.00;52362.50;5046504;28;19924;-81
2022/10/13 04:56:38;;;;;;;;;;;;;;;-144.99;100.00;52333.94;5047599;28;20353;-78
2022/10/13 04:59:05;;;;;;;;;;;;;;;-144.99;100.00;52325.81;5044434;28;20403;-79
2022/10/13 05:01:31;;;;;;;;;;;;;;;-144.99;100.00;52305.41;5049273;28;19983;-79
2022/10/13 05:03:58;;;;;;;;;;;;;;;-144.99;100.00;52350.25;5043553;28;19933;-76
2022/10/13 05:06:26;;;;;;;;;;;;;;;-144.99;100.00;52340.06;5042906;28;20015;-77
2022/10/13 05:08:54;;;;;;;;;;;;;;;-144.99;100.00;52317.66;5046636;28;20403;-76
2022/10/13 05:11:21;;;;;;;;;;;;;;;-144.99;100.00;52329.88;5048401;28;19933;-75
2022/10/13 05:13:48;;;;;;;;;;;;;;;-144.99;100.00;52319.69;5047932;28;19925;-77
2022/10/13 05:16:15;;;;;;;;;;;;;;;-144.99;100.00;52321.72;5047020;28;19929;-74
2022/10/13 05:18:42;;;;;;;;;;;;;;;-144.99;100.00;52325.81;5046236;28;19979;-79
2022/10/13 05:21:09;;;;;;;;;;;;;;;-144.99;100.00;52374.72;5043583;28;19979;-75
2022/10/13 05:23:36;;;;;;;;;;;;;;;-144.99;100.00;52317.66;5049558;28;19924;-78
2022/10/13 05:26:04;;;;;;;;;;;;;;;-144.99;100.00;52338.03;4340565;28;10000699;-79
2022/10/13 05:28:31;;;;;;;;;;;;;;;-144.99;100.00;52329.88;5045478;28;20012;-79
2022/10/13 05:30:57;;;;;;;;;;;;;;;-144.99;100.00;52342.09;5048279;28;19935;-78
2022/10/13 05:33:24;;;;;;;;;;;;;;;-144.99;100.00;52350.25;5034623;28;19952;-78
2022/10/13 05:35:50;;;;;;;;;;;;;;;-144.99;100.00;52317.66;5047024;28;20632;-77
2022/10/13 05:38:16;;;;;;;;;;;;;;;-144.99;100.00;52329.88;5049646;28;19955;-76
2022/10/13 05:40:42;;;;;;;;;;;;;;;-144.99;100.00;52329.88;5046321;28;19935;-76
2022/10/13 05:43:10;;;;;;;;;;;;;;;-144.99;100.00;52374.72;5047293;28;19989;-76
2022/10/13 05:45:37;;;;;;;;;;;;;;;-144.99;100.00;52382.88;5047683;28;20379;-76
2022/10/13 05:48:03;;;;;;;;;;;;;;;-144.99;100.00;52325.81;5053275;28;19928;-76
2022/10/13 05:50:29;;;;;;;;;;;;;;;-144.99;100.00;52297.25;5046337;28;19944;-78
2022/10/13 05:52:56;;;;;;;;;;;;;;;-144.99;100.00;52297.25;5049945;28;19936;-77
2022/10/13 05:55:22;;;;;;;;;;;;;;;-144.99;100.00;52348.22;5047033;28;20348;-77
2022/10/13 05:57:51;;;;;;;;;;;;;;;-144.99;100.00;52338.03;5045764;28;19929;-77
2022/10/13 06:00:19;;;;;;;;;;;;;;;-144.99;100.00;52333.94;5045410;28;19935;-77
2022/10/13 06:02:48;;;;;;;;;;;;;;;-144.99;100.00;52354.34;5046525;28;19932;-77
2022/10/13 06:05:17;;;;;;;;;;;;;;;-144.99;100.00;52321.72;5046532;28;19928;-77
2022/10/13 06:07:44;;;;;;;;;;;;;;;-144.99;100.00;52342.09;5056520;28;19929;-76
2022/10/13 06:10:11;;;;;;;;;;;;;;;-144.99;100.00;52329.88;5069461;28;19948;-78
2022/10/13 06:12:38;;;;;;;;;;;;;;;-144.99;100.00;52333.94;5055679;28;19924;-76
2022/10/13 06:15:04;;;;;;;;;;;;;;;-144.99;100.00;52342.09;5041870;28;19924;-79
2022/10/13 06:17:32;;;;;;;;;;;;;;;-144.99;100.00;52366.56;5039370;28;20392;-77
2022/10/13 06:19:58;;;;;;;;;;;;;;;-144.99;100.00;52329.88;5042960;28;19951;-76
2022/10/13 06:22:25;;;;;;;;;;;;;;;-144.99;100.00;52354.34;5045148;28;19929;-76
2022/10/13 06:24:51;;;;;;;;;;;;;;;-144.99;100.00;52331.91;5045219;28;19929;-77
2022/10/13 06:27:18;;;;;;;;;;;;;;;-144.99;100.00;52354.34;5031822;28;19929;-77
2022/10/13 06:29:44;;;;;;;;;;;;;;;-144.99;100.00;52346.19;5035246;28;19951;-76
2022/10/13 06:32:10;;;;;;;;;;;;;;;-144.99;100.00;52327.84;5052423;28;19929;-78
2022/10/13 06:34:38;;;;;;;;;;;;;;;-144.99;100.00;52301.34;5039953;28;19924;-78
2022/10/13 06:37:04;;;;;;;;;;;;;;;-144.99;100.00;52344.16;5045902;28;19929;-77
2022/10/13 06:39:30;;;;;;;;;;;;;;;-144.99;100.00;52303.38;5035773;28;19928;-77
2022/10/13 06:41:57;;;;;;;;;;;;;;;-144.99;100.00;52317.66;5037595;28;19929;-78
2022/10/13 06:44:23;;;;;;;;;;;;;;;-144.99;100.00;52346.19;5040244;28;20012;-76
2022/10/13 06:46:50;;;;;;;;;;;;;;;-144.99;100.00;52354.34;5035838;28;19929;-78
2022/10/13 06:49:16;;;;;;;;;;;;;;;-144.99;100.00;52348.22;5045366;28;20296;-78
2022/10/13 06:51:44;;;;;;;;;;;;;;;-144.99;100.00;52287.06;5046318;28;19960;-77
2022/10/13 06:54:10;;;;;;;;;;;;;;;-144.99;100.00;52317.66;5045426;28;19979;-78
2022/10/13 06:56:37;;;;;;;;;;;;;;;-144.99;100.00;52303.38;5049445;28;19935;-77
2022/10/13 06:59:03;;;;;;;;;;;;;;;-144.99;100.00;52321.72;5049607;28;19929;-77
2022/10/13 07:01:29;;;;;;;;;;;;;;;-144.99;100.00;52346.19;5048040;28;19929;-76
2022/10/13 07:03:56;;;;;;;;;;;;;;;-144.99;100.00;52333.94;5050352;28;20287;-78
2022/10/13 07:06:22;;;;;;;;;;;;;;;-144.99;100.00;52329.88;5043701;28;20312;-77
2022/10/13 07:08:50;;;;;;;;;;;;;;;-144.99;100.00;52329.88;5047093;28;19929;-79
2022/10/13 07:11:17;;;;;;;;;;;;;;;-144.99;100.00;52346.19;5049415;28;20012;-78
2022/10/13 07:16:11;;;;;;;;;;;;;;;-144.99;100.00;52338.03;4731804;28;10000436;-72
2022/10/13 07:18:37;;;;;;;;;;;;;;;-144.99;100.00;52331.91;5073417;28;19935;-70
2022/10/13 07:21:05;;;;;;;;;;;;;;;-144.99;100.00;52346.19;5087941;28;20344;-70
2022/10/13 07:23:31;;;;;;;;;;;;;;;-144.99;100.00;52297.25;5083200;28;20654;-70
2022/10/13 07:26:00;;;;;;;;;;;;;;;-144.99;100.00;52333.94;5088459;28;19928;-69
2022/10/13 07:28:27;;;;;;;;;;;;;;;-144.99;100.00;52331.91;5084364;28;19928;-70
2022/10/13 07:30:53;;;;;;;;;;;;;;;-144.99;100.00;52321.72;5088972;28;19928;-72
2022/10/13 07:33:19;;;;;;;;;;;;;;;-144.99;100.00;52268.72;5086301;28;19924;-71
2022/10/13 07:35:46;;;;;;;;;;;;;;;-144.99;100.00;52329.88;5087405;28;19971;-70
2022/10/13 07:38:12;;;;;;;;;;;;;;;-144.99;100.00;52276.88;5087387;28;19928;-70
2022/10/13 07:40:39;;;;;;;;;;;;;;;-144.99;100.00;52323.75;5089573;28;19950;-70
2022/10/13 07:43:07;;;;;;;;;;;;;;;-144.99;100.00;52329.88;5104812;28;19917;-70
2022/10/13 07:45:33;;;;;;;;;;;;;;;-144.99;100.00;52325.81;5098222;28;19928;-70
2022/10/13 07:47:59;;;;;;;;;;;;;;;-144.99;100.00;52323.75;5080510;28;20356;-70
2022/10/13 07:50:26;;;;;;;;;;;;;;;-144.99;100.00;52297.25;5081975;28;20002;-70
2022/10/13 07:52:52;;;;;;;;;;;;;;;-144.99;100.00;52313.56;5081338;28;19935;-70
2022/10/13 07:55:19;;;;;;;;;;;;;;;-144.99;100.00;52325.81;5081130;28;19924;-70
2022/10/13 07:57:45;;;;;;;;;;;;;;;-144.99;100.00;52291.16;5080381;28;20279;-71
2022/10/13 08:00:13;;;;;;;;;;;;;;;-144.99;100.00;52305.41;5074413;28;19935;-72
2022/10/13 08:02:40;;;;;;;;;;;;;;;-144.99;100.00;52309.50;5077423;28;19935;-72
2022/10/13 08:05:06;;;;;;;;;;;;;;;-144.99;100.00;52336.00;5082614;28;20260;-70
2022/10/13 08:07:33;;;;;;;;;;;;;;;-144.99;99.89;52289.13;5085198;28;19928;-70
2022/10/13 08:09:59;;;;;;;;;;;;;;;-144.99;99.29;52252.44;5085922;28;20399;-70
2022/10/13 08:12:25;;;;;;;;;;;;;;;-144.99;98.52;52329.88;5084405;28;19924;-70
2022/10/13 08:14:52;;;;;;;;;;;;;;;-144.99;98.47;52305.41;5085333;28;19934;-70
2022/10/13 08:17:20;;;;;;;;;;;;;;;-144.99;97.90;52305.41;5074834;28;19933;-70
2022/10/13 08:19:46;;;;;;;;;;;;;;;-144.99;97.12;52299.31;5077683;28;19955;-69
2022/10/13 08:22:13;;;;;;;;;;;;;;;-144.99;97.34;52289.13;5084365;28;19932;-69
2022/10/13 08:24:39;;;;;;;;;;;;;;;-144.99;97.54;52305.41;5086421;28;20285;-70
2022/10/13 08:27:06;;;;;;;;;;;;;;;-144.99;97.19;52285.03;5084229;28;19928;-69
2022/10/13 08:29:32;;;;;;;;;;;;;;;-144.99;96.43;52285.03;5086495;28;20756;-71
2022/10/13 08:31:58;;;;;;;;;;;;;;;-144.99;95.56;52276.88;5087030;28;19924;-70
2022/10/13 08:34:26;;;;;;;;;;;;;;;-144.99;94.88;52354.34;5084895;28;19943;-71
2022/10/13 08:36:55;;;;;;;;;;;;;;;-144.99;94.69;52315.59;5083713;28;20025;-68
2022/10/13 08:39:21;;;;;;;;;;;;;;;-144.99;95.17;52317.66;5080617;28;19996;-70
2022/10/13 08:41:48;;;;;;;;;;;;;;;-144.99;95.26;52276.88;5075410;28;20292;-69
2022/10/13 08:44:19;;;;;;;;;;;;;;;-144.99;94.91;52303.38;5085015;28;19928;-68
2022/10/13 08:46:50;;;;;;;;;;;;;;;-144.99;94.61;52280.97;5083395;28;19924;-69
2022/10/13 08:49:17;;;;;;;;;;;;;;;-144.99;94.00;52260.56;5085529;28;19928;-70
2022/10/13 08:51:45;;;;;;;;;;;;;;;-144.99;93.25;52289.13;5084097;28;19930;-70
2022/10/13 08:54:12;;;;;;;;;;;;;;;-144.99;91.72;52293.19;5081616;28;20041;-69
2022/10/13 08:56:39;;;;;;;;;;;;;;;-144.99;91.31;52276.88;5083766;28;20292;-69
2022/10/13 08:59:05;;;;;;;;;;;;;;;-144.99;90.41;52289.13;5083906;28;20293;-69
2022/10/13 09:01:33;;;;;;;;;;;;;;;-144.99;90.60;52268.72;5084673;28;19946;-69
2022/10/13 09:04:07;;;;;;;;;;;;;;;-144.99;90.69;52256.50;5081668;28;20403;-70
2022/10/13 09:06:36;;;;;;;;;;;;;;;-144.99;91.33;52276.88;5078288;28;20015;-69
2022/10/13 09:09:05;;;;;;;;;;;;;;;-144.99;90.66;52254.47;5074937;28;19935;-69
2022/10/13 09:11:33;;;;;;;;;;;;;;;-144.99;89.49;52276.88;5086826;28;20301;-69
2022/10/13 09:14:01;;;;;;;;;;;;;;;-144.99;88.72;52252.44;5077510;28;19934;-69
2022/10/13 09:16:29;;;;;;;;;;;;;;;-144.99;88.55;52289.13;5085599;28;19931;-68
2022/10/13 09:19:11;;;;;;;;;;;;;;;-144.99;88.54;52272.81;5086355;28;20308;-70
2022/10/13 09:21:38;;;;;;;;;;;;;;;-144.99;87.95;52258.53;5073785;28;19934;-70
2022/10/13 09:24:07;;;;;;;;;;;;;;;-144.99;87.29;52285.03;5078287;28;19928;-70
2022/10/13 09:26:37;;;;;;;;;;;;;;;-144.99;84.51;52297.25;5085229;28;20015;-68
2022/10/13 09:29:07;;;;;;;;;;;;;;;-144.99;84.36;52268.72;5086055;28;20019;-70
2022/10/13 09:31:34;;;;;;;;;;;;;;;-144.99;85.10;52221.84;5086021;28;20451;-69
2022/10/13 09:34:01;;;;;;;;;;;;;;;-144.99;86.69;52272.81;5086599;28;19928;-69
2022/10/13 09:36:30;;;;;;;;;;;;;;;-144.99;87.54;52289.13;5083937;28;20371;-69
2022/10/13 09:39:07;;;;;;;;;;;;;;;-144.99;87.92;52268.72;5081727;28;19927;-70
2022/10/13 09:41:35;;;;;;;;;;;;;;;-144.99;88.27;52285.03;5081467;28;19931;-69
2022/10/13 09:44:08;;;;;;;;;;;;;;;-144.99;88.20;52260.56;5085611;28;19958;-69
2022/10/13 09:46:36;;;;;;;;;;;;;;;-144.99;87.88;52244.28;5081547;28;20145;-68
2022/10/13 09:49:04;;;;;;;;;;;;;;;-144.99;87.08;52303.38;5082126;28;19935;-69
2022/10/13 09:51:34;;;;;;;;;;;;;;;-144.99;86.46;52280.97;5084670;28;19959;-71
2022/10/13 09:54:00;;;;;;;;;;;;;;;-144.99;86.60;52252.44;5083537;28;19951;-69
2022/10/13 09:56:31;;;;;;;;;;;;;;;-144.99;87.57;52266.69;5084552;28;20427;-68
2022/10/13 09:59:02;;;;;;;;;;;;;;;-144.99;87.86;52268.72;5083091;28;19924;-68
2022/10/13 10:01:33;;;;;;;;;;;;;;;-144.99;88.25;52317.66;5085973;28;20043;-69
2022/10/13 10:04:01;;;;;;;;;;;;;;;-144.99;89.00;52278.91;5085719;28;19951;-69
2022/10/13 10:06:27;;;;;;;;;;;;;;;-144.99;88.74;52285.03;5084027;28;20400;-69
2022/10/13 10:08:57;;;;;;;;;;;;;;;-144.99;87.88;52272.81;5082407;28;19998;-70
2022/10/13 10:11:26;;;;;;;;;;;;;;;-144.99;87.83;52303.38;5083703;28;20026;-69
2022/10/13 10:13:54;;;;;;;;;;;;;;;-144.99;87.41;52272.81;5078289;28;19948;-69
2022/10/13 10:16:28;;;;;;;;;;;;;;;-144.99;87.75;52268.72;5080115;28;19924;-71
2022/10/13 10:18:58;;;;;;;;;;;;;;;-144.99;86.95;52258.53;5079625;28;20397;-69
2022/10/13 10:21:27;;;;;;;;;;;;;;;-144.99;86.65;52260.56;5083970;28;19924;-69
2022/10/13 10:23:58;;;;;;;;;;;;;;;-144.99;85.88;52264.66;5082761;28;20464;-68
2022/10/13 10:26:29;;;;;;;;;;;;;;;-144.99;85.42;52272.81;5089268;28;20385;-70
2022/10/13 10:29:17;;;;;;;;;;;;;;;-144.99;86.16;52276.88;4735720;28;9999976;-68
2022/10/13 10:31:52;;;;;;;;;;;;;;;-144.99;86.43;52293.19;5085248;28;19935;-69
2022/10/13 10:34:37;;;;;;;;;;;;;;;-144.99;86.79;52309.50;5083218;28;19927;-69
2022/10/13 10:37:13;;;;;;;;;;;;;;;-144.99;86.97;52297.25;5088365;28;19928;-69
2022/10/13 10:39:45;;;;;;;;;;;;;;;-144.99;86.23;52268.72;5083852;28;20313;-69
2022/10/13 10:42:20;;;;;;;;;;;;;;;-144.99;85.40;52272.81;5083900;28;19928;-68
2022/10/13 10:44:50;;;;;;;;;;;;;;;-144.99;85.20;52236.13;5082845;28;19928;-69
2022/10/13 10:47:20;;;;;;;;;;;;;;;-144.99;84.81;52252.44;5085727;28;19938;-70
2022/10/13 10:49:46;;;;;;;;;;;;;;;-144.99;84.77;52285.03;5088382;28;20431;-69
2022/10/13 10:52:19;;;;;;;;;;;;;;;-144.99;84.53;52262.63;5087626;28;20011;-70
2022/10/13 10:54:50;;;;;;;;;;;;;;;-144.99;85.10;52254.47;5087760;28;20300;-69
2022/10/13 10:57:21;;;;;;;;;;;;;;;-144.99;84.57;52254.47;5088180;28;19928;-70
2022/10/13 10:59:55;;;;;;;;;;;;;;;-144.99;82.66;52244.28;5079431;28;19939;-70
2022/10/13 11:02:35;;;;;;;;;;;;;;;-144.99;81.53;52264.66;5087428;28;20447;-69
2022/10/13 11:05:01;;;;;;;;;;;;;;;-144.99;80.77;52276.88;5087912;28;20308;-69
2022/10/13 11:07:46;;;;;;;;;;;;;;;-144.99;81.26;52246.31;5088265;28;20022;-69
2022/10/13 11:10:17;;;;;;;;;;;;;;;-144.99;80.79;52280.97;5083979;28;19928;-69
2022/10/13 11:13:02;;;;;;;;;;;;;;;-144.99;80.88;52262.63;5087409;28;19928;-69
2022/10/13 11:15:40;;;;;;;;;;;;;;;-144.99;80.53;52207.59;5081263;28;20292;-69
2022/10/13 11:18:21;;;;;;;;;;;;;;;-144.99;80.04;52285.03;5076885;28;20360;-69
2022/10/13 11:20:49;;;;;;;;;;;;;;;-144.99;77.46;52211.66;5085861;28;19928;-69
2022/10/13 11:23:31;;;;;;;;;;;;;;;-144.99;76.55;52227.97;5085828;28;19928;-69
2022/10/13 11:26:13;;;;;;;;;;;;;;;-144.99;75.67;52278.91;5078738;28;19935;-69
2022/10/13 11:28:46;;;;;;;;;;;;;;;-144.99;74.92;52248.34;5079770;28;19950;-70
2022/10/13 11:31:28;;;;;;;;;;;;;;;-144.99;75.97;52252.44;5086778;28;19932;-69
2022/10/13 11:33:55;;;;;;;;;;;;;;;-144.99;77.23;52297.25;5086100;28;20372;-70
2022/10/13 11:36:32;;;;;;;;;;;;;;;-144.99;77.68;52293.19;5078770;28;19935;-69
2022/10/13 11:39:03;;;;;;;;;;;;;;;-144.99;79.16;52278.91;5078898;28;20029;-69
2022/10/13 11:41:36;;;;;;;;;;;;;;;-144.99;79.69;52252.44;5085816;28;19935;-70
2022/10/13 11:44:05;;;;;;;;;;;;;;;-144.99;80.91;52264.66;5088142;28;19924;-69
2022/10/13 11:46:36;;;;;;;;;;;;;;;-144.99;81.46;52305.41;5095917;28;19942;-69
2022/10/13 11:49:30;;;;;;;;;;;;;;;-144.99;82.30;52293.19;5091827;28;20062;-71
2022/10/13 11:52:14;;;;;;;;;;;;;;;-144.99;82.81;52262.63;5086424;28;20400;-69
2022/10/13 11:54:47;;;;;;;;;;;;;;;-144.99;83.11;52280.97;5074834;28;20373;-69
2022/10/13 11:57:21;;;;;;;;;;;;;;;-144.99;83.12;52230.00;5082456;28;20257;-68
2022/10/13 11:59:48;;;;;;;;;;;;;;;-144.99;82.27;52250.38;5085287;28;20295;-68
2022/10/13 12:02:16;;;;;;;;;;;;;;;-144.99;82.62;52268.72;5075173;28;20440;-69
2022/10/13 12:04:44;;;;;;;;;;;;;;;-144.99;83.73;52305.41;5085810;28;19947;-70
2022/10/13 12:07:11;;;;;;;;;;;;;;;-144.99;84.14;52280.97;5085361;28;19968;-70
2022/10/13 12:09:40;;;;;;;;;;;;;;;-144.99;84.95;52280.97;5076592;28;20381;-70
2022/10/13 12:12:13;;;;;;;;;;;;;;;-144.99;85.40;52272.81;5081377;28;20381;-70
2022/10/13 12:14:42;;;;;;;;;;;;;;;-144.99;85.61;52280.97;5078321;28;20295;-72
2022/10/13 12:17:21;;;;;;;;;;;;;;;-144.99;85.95;52289.13;5084740;28;19972;-69
2022/10/13 12:19:47;;;;;;;;;;;;;;;-144.99;85.79;52232.03;5081092;28;19932;-69
2022/10/13 12:22:14;;;;;;;;;;;;;;;-144.99;86.10;52283.00;5086128;28;19924;-69
2022/10/13 12:24:40;;;;;;;;;;;;;;;-144.99;85.83;52297.25;5085044;28;20407;-68
2022/10/13 12:27:10;;;;;;;;;;;;;;;-144.99;85.74;52276.88;5085847;28;19927;-69
2022/10/13 12:29:39;;;;;;;;;;;;;;;-144.99;85.72;52272.81;5079018;28;19924;-68
2022/10/13 12:32:17;;;;;;;;;;;;;;;-144.99;84.84;52264.66;5084297;28;20349;-69